createdAt,value
2023-05-06T00:00:24.602Z,100657.56
2023-05-06T00:03:29.114Z,100655.38
2023-05-06T00:06:36.041Z,100638.91
2023-05-06T00:09:47.812Z,100625.75
2023-05-06T00:12:52.085Z,100652.38
2023-05-06T00:15:59.031Z,100646.09
2023-05-06T00:19:04.469Z,100639.63
2023-05-06T00:22:08.469Z,100660.09
2023-05-06T00:25:12.397Z,100636.84
2023-05-06T00:28:16.774Z,100648.25
2023-05-06T00:31:21.496Z,100643.16
2023-05-06T00:34:28.134Z,100629.69
2023-05-06T00:41:10.779Z,100643.53
2023-05-06T00:44:20.609Z,100665.03
2023-05-06T00:50:34.652Z,100651.41
2023-05-06T00:53:48.843Z,100651.91
2023-05-06T00:56:56.072Z,100634.19
2023-05-06T01:00:02.912Z,100651.38
2023-05-06T01:03:08.325Z,100629.94
2023-05-06T01:06:22.458Z,100644.22
2023-05-06T01:09:54.284Z,100628.78
2023-05-06T01:13:23.561Z,100612.56
2023-05-06T01:16:31.762Z,100629.84
2023-05-06T01:20:07.252Z,100638.19
2023-05-06T01:23:13.965Z,100630.28
2023-05-06T01:26:21.677Z,100627.38
2023-05-06T01:29:30.821Z,100621.31
2023-05-06T01:33:04.514Z,100617.97
2023-05-06T01:36:17.719Z,100622.94
2023-05-06T01:43:57.992Z,100557.94
2023-05-06T01:47:17.407Z,100613.59
2023-05-06T01:51:16.682Z,100610.84
2023-05-06T01:54:08.514Z,100595.13
2023-05-06T01:57:39.919Z,100605.38
2023-05-06T02:01:50.799Z,100521.34
2023-05-06T02:04:42.948Z,100554.00
2023-05-06T02:07:52.252Z,100587.28
2023-05-06T02:11:02.366Z,100584.06
2023-05-06T02:14:45.724Z,100598.56
2023-05-06T02:17:54.784Z,100584.34
2023-05-06T02:21:35.188Z,100597.66
2023-05-06T02:24:42.962Z,100540.38
2023-05-06T02:28:17.401Z,100595.91
2023-05-06T02:31:25.436Z,100589.38
2023-05-06T02:34:46.035Z,100586.97
2023-05-06T02:37:55.715Z,100551.03
2023-05-06T02:41:09.590Z,100563.34
2023-05-06T02:44:54.781Z,100570.81
2023-05-06T02:48:12.444Z,100578.63
2023-05-06T02:51:27.797Z,100600.13
2023-05-06T02:54:52.613Z,100559.59
2023-05-06T02:57:57.564Z,100556.97
2023-05-06T03:01:10.212Z,100556.91
2023-05-06T03:04:27.124Z,100594.28
2023-05-06T03:07:45.404Z,100489.63
2023-05-06T03:14:22.452Z,100587.72
2023-05-06T03:21:31.198Z,100484.31
2023-05-06T03:25:16.834Z,100583.53
2023-05-06T03:29:50.437Z,100496.56
2023-05-06T03:38:07.604Z,100414.63
2023-05-06T03:41:56.640Z,100488.13
2023-05-06T03:49:05.970Z,100581.16
2023-05-06T03:52:12.582Z,100562.84
2023-05-06T03:55:17.405Z,100561.22
2023-05-06T03:58:21.886Z,100568.66
2023-05-06T04:01:29.721Z,100570.13
2023-05-06T04:04:49.693Z,100533.06
2023-05-06T04:07:54.271Z,100564.50
2023-05-06T04:11:05.968Z,100554.16
2023-05-06T04:14:13.676Z,100576.09
2023-05-06T04:17:18.501Z,100566.41
2023-05-06T04:20:27.382Z,100552.13
2023-05-06T04:23:32.815Z,100514.59
2023-05-06T04:26:41.227Z,100539.34
2023-05-06T04:29:47.072Z,100530.53
2023-05-06T04:32:56.177Z,100546.69
2023-05-06T04:36:01.181Z,100545.59
2023-05-06T04:39:09.709Z,100552.09
2023-05-06T04:42:16.969Z,100547.78
2023-05-06T04:45:33.881Z,100552.53
2023-05-06T04:58:06.620Z,100401.66
2023-05-06T05:01:43.055Z,100534.03
2023-05-06T05:04:50.060Z,100502.63
2023-05-06T05:07:54.684Z,100546.00
2023-05-06T05:10:59.497Z,100497.66
2023-05-06T05:14:06.786Z,100535.22
2023-05-06T05:17:11.393Z,100530.22
2023-05-06T05:20:16.753Z,100533.78
2023-05-06T05:23:20.746Z,100536.44
2023-05-06T05:26:27.464Z,100532.06
2023-05-06T05:29:34.633Z,100515.56
2023-05-06T05:32:42.433Z,100510.81
2023-05-06T05:35:47.302Z,100521.06
2023-05-06T05:38:52.429Z,100521.31
2023-05-06T05:42:01.911Z,100510.38
2023-05-06T05:45:06.193Z,100508.97
2023-05-06T05:48:10.468Z,100513.28
2023-05-06T05:51:15.411Z,100502.59
2023-05-06T05:59:04.662Z,100508.97
2023-05-06T06:03:30.357Z,100460.31
2023-05-06T06:11:32.009Z,100459.38
2023-05-06T06:15:08.953Z,100436.81
2023-05-06T06:24:12.734Z,100483.13
2023-05-06T06:36:40.651Z,100463.59
2023-05-06T06:40:13.012Z,100493.63
2023-05-06T06:43:26.862Z,100537.44
2023-05-06T06:46:37.243Z,100577.22
2023-05-06T06:49:44.742Z,100587.97
2023-05-06T06:52:48.702Z,100606.31
2023-05-06T06:57:21.172Z,100525.38
2023-05-06T07:05:21.631Z,100602.75
2023-05-06T07:08:53.947Z,100618.63
2023-05-06T07:12:13.036Z,100617.81
2023-05-06T07:15:28.621Z,100615.97
2023-05-06T07:19:08.589Z,100603.53
2023-05-06T07:22:25.425Z,100620.75
2023-05-06T07:25:42.139Z,100575.50
2023-05-06T07:28:54.346Z,100605.75
2023-05-06T07:32:11.236Z,100582.22
2023-05-06T07:35:29.217Z,100556.16
2023-05-06T07:38:35.691Z,100586.38
2023-05-06T07:41:55.351Z,100555.41
2023-05-06T07:45:20.047Z,100620.72
2023-05-06T07:48:36.438Z,100579.09
2023-05-06T07:51:49.189Z,100569.84
2023-05-06T07:54:59.902Z,100618.22
2023-05-06T08:02:58.328Z,100500.13
2023-05-06T08:06:33.118Z,100623.00
2023-05-06T08:09:37.712Z,100603.78
2023-05-06T08:12:44.728Z,100620.56
2023-05-06T08:15:48.985Z,100618.03
2023-05-06T08:18:55.821Z,100620.44
2023-05-06T08:22:00.040Z,100607.34
2023-05-06T08:25:05.809Z,100615.34
2023-05-06T08:28:11.773Z,100605.72
2023-05-06T08:31:16.263Z,100607.72
2023-05-06T08:34:29.776Z,100620.44
2023-05-06T08:37:34.853Z,100627.97
2023-05-06T08:40:45.912Z,100643.44
2023-05-06T08:43:51.392Z,100639.59
2023-05-06T08:46:58.124Z,100620.16
2023-05-06T08:50:02.464Z,100652.03
2023-05-06T08:53:16.200Z,100639.97
2023-05-06T08:56:30.156Z,100640.81
2023-05-06T08:59:37.162Z,100653.72
2023-05-06T09:03:28.385Z,100560.78
2023-05-06T09:07:24.251Z,100669.06
2023-05-06T09:10:57.101Z,100656.09
2023-05-06T09:14:57.827Z,100679.56
2023-05-06T09:18:08.910Z,100652.34
2023-05-06T09:21:23.388Z,100655.44
2023-05-06T09:24:44.568Z,100656.38
2023-05-06T09:28:24.171Z,100636.41
2023-05-06T09:31:55.864Z,100657.94
2023-05-06T09:35:16.216Z,100673.59
2023-05-06T09:56:16.803Z,100693.88
2023-05-06T09:59:31.640Z,100648.47
2023-05-06T10:03:13.521Z,100633.94
2023-05-06T10:11:08.775Z,100595.09
2023-05-06T10:14:16.190Z,100717.56
2023-05-06T10:17:22.421Z,100705.44
2023-05-06T10:20:28.703Z,100732.78
2023-05-06T10:23:45.346Z,100710.75
2023-05-06T10:26:56.371Z,100727.75
2023-05-06T10:30:02.780Z,100729.94
2023-05-06T10:33:10.436Z,100736.41
2023-05-06T10:36:31.063Z,100720.69
2023-05-06T10:39:35.563Z,100719.69
2023-05-06T10:42:39.738Z,100729.81
2023-05-06T10:46:07.904Z,100754.38
2023-05-06T10:49:12.747Z,100758.28
2023-05-06T10:52:24.864Z,100725.53
2023-05-06T10:55:35.710Z,100759.59
2023-05-06T10:58:50.633Z,100758.97
2023-05-06T11:02:07.241Z,100768.00
2023-05-06T11:05:13.261Z,100766.34
2023-05-06T11:08:28.529Z,100748.22
2023-05-06T11:12:05.798Z,100775.34
2023-05-06T11:15:41.485Z,100764.19
2023-05-06T11:18:49.870Z,100778.41
2023-05-06T11:21:58.657Z,100781.09
2023-05-06T11:25:07.688Z,100789.19
2023-05-06T11:28:13.868Z,100789.41
2023-05-06T11:31:23.182Z,100735.22
2023-05-06T11:34:31.557Z,100788.75
2023-05-06T11:37:39.016Z,100778.03
2023-05-06T11:40:45.588Z,100785.78
2023-05-06T11:43:51.189Z,100784.16
2023-05-06T11:47:19.145Z,100763.09
2023-05-06T11:50:26.426Z,100795.03
2023-05-06T11:53:31.706Z,100806.47
2023-05-06T11:56:58.131Z,100816.19
2023-05-06T12:00:03.175Z,100784.84
2023-05-06T12:03:20.919Z,100810.47
2023-05-06T12:06:35.545Z,100821.84
2023-05-06T12:10:09.845Z,100821.94
2023-05-06T12:13:21.813Z,100810.66
2023-05-06T12:16:30.474Z,100815.13
2023-05-06T12:19:39.536Z,100803.50
2023-05-06T12:22:48.916Z,100825.38
2023-05-06T12:26:07.404Z,100822.97
2023-05-06T12:29:18.143Z,100820.38
2023-05-06T12:32:22.883Z,100812.50
2023-05-06T12:35:29.505Z,100809.91
2023-05-06T12:38:48.100Z,100803.75
2023-05-06T12:42:22.119Z,100760.00
2023-05-06T12:45:28.650Z,100796.84
2023-05-06T12:48:36.697Z,100809.16
2023-05-06T12:51:47.639Z,100814.44
2023-05-06T12:54:55.801Z,100806.56
2023-05-06T12:58:00.061Z,100814.44
2023-05-06T13:01:08.673Z,100824.09
2023-05-06T13:04:14.437Z,100810.09
2023-05-06T13:07:22.105Z,100809.19
2023-05-06T13:10:27.124Z,100836.41
2023-05-06T13:13:32.145Z,100802.16
2023-05-06T13:16:39.789Z,100801.31
2023-05-06T13:19:44.145Z,100821.50
2023-05-06T13:22:54.666Z,100826.75
2023-05-06T13:26:04.244Z,100776.72
2023-05-06T13:29:11.800Z,100817.97
2023-05-06T13:32:25.544Z,100832.00
2023-05-06T13:35:32.663Z,100829.38
2023-05-06T13:38:43.681Z,100767.00
2023-05-06T13:41:50.887Z,100831.13
2023-05-06T13:44:55.475Z,100813.56
2023-05-06T13:48:02.222Z,100833.75
2023-05-06T13:51:09.824Z,100848.66
2023-05-06T13:54:17.137Z,100839.81
2023-05-06T13:57:23.055Z,100813.41
2023-05-06T14:00:29.694Z,100850.25
2023-05-06T14:03:33.955Z,100857.22
2023-05-06T14:06:45.757Z,100836.25
2023-05-06T14:09:52.850Z,100823.03
2023-05-06T14:13:02.744Z,100802.03
2023-05-06T14:16:11.220Z,100843.31
2023-05-06T14:19:17.551Z,100840.69
2023-05-06T14:22:26.651Z,100832.84
2023-05-06T14:25:33.190Z,100838.09
2023-05-06T14:28:37.221Z,100830.94
2023-05-06T14:31:48.047Z,100817.75
2023-05-06T14:34:52.032Z,100861.50
2023-05-06T14:37:56.700Z,100834.91
2023-05-06T14:41:01.889Z,100828.53
2023-05-06T14:44:07.368Z,100854.06
2023-05-06T14:47:11.801Z,100863.69
2023-05-06T14:50:19.592Z,100855.03
2023-05-06T14:53:26.850Z,100833.09
2023-05-06T14:56:31.321Z,100840.22
2023-05-06T14:59:36.058Z,100832.28
2023-05-06T15:02:42.570Z,100876.31
2023-05-06T15:05:47.201Z,100868.47
2023-05-06T15:08:57.220Z,100856.94
2023-05-06T15:12:02.640Z,100871.69
2023-05-06T15:15:07.849Z,100849.69
2023-05-06T15:18:14.145Z,100840.03
2023-05-06T15:21:18.776Z,100848.91
2023-05-06T15:24:23.703Z,100840.78
2023-05-06T15:27:32.808Z,100810.03
2023-05-06T15:30:39.285Z,100850.56
2023-05-06T15:33:46.823Z,100829.22
2023-05-06T15:36:55.249Z,100859.06
2023-05-06T15:39:59.336Z,100854.63
2023-05-06T15:43:06.364Z,100856.47
2023-05-06T15:46:13.787Z,100858.25
2023-05-06T15:49:47.452Z,100842.34
2023-05-06T15:52:46.488Z,100851.81
2023-05-06T15:55:57.218Z,100842.28
2023-05-06T15:59:09.146Z,100829.13
2023-05-06T16:05:23.895Z,100817.75
2023-05-06T16:08:28.460Z,100831.69
2023-05-06T16:11:32.992Z,100835.00
2023-05-06T16:14:39.894Z,100814.75
2023-05-06T16:17:44.611Z,100817.47
2023-05-06T16:20:50.076Z,100829.91
2023-05-06T16:23:54.579Z,100814.59
2023-05-06T16:27:28.980Z,100735.63
2023-05-06T16:30:33.252Z,100767.34
2023-05-06T16:33:38.126Z,100827.44
2023-05-06T16:36:42.677Z,100840.44
2023-05-06T16:39:46.654Z,100843.66
2023-05-06T16:42:53.242Z,100821.88
2023-05-06T16:45:57.764Z,100813.28
2023-05-06T16:49:04.683Z,100821.84
2023-05-06T16:52:08.983Z,100826.03
2023-05-06T16:55:13.585Z,100830.16
2023-05-06T16:58:17.470Z,100814.59
2023-05-06T17:01:22.179Z,100812.88
2023-05-06T17:04:25.882Z,100808.50
2023-05-06T17:07:33.330Z,100811.25
2023-05-06T17:10:37.666Z,100819.97
2023-05-06T17:13:41.871Z,100804.59
2023-05-06T17:16:46.537Z,100820.47
2023-05-06T17:19:50.609Z,100814.41
2023-05-06T17:22:55.120Z,100815.19
2023-05-06T17:25:59.664Z,100822.31
2023-05-06T17:29:14.130Z,100710.28
2023-05-06T17:32:21.258Z,100821.06
2023-05-06T17:35:25.870Z,100785.88
2023-05-06T17:38:31.417Z,100826.25
2023-05-06T17:41:38.398Z,100787.78
2023-05-06T17:44:45.353Z,100778.22
2023-05-06T17:47:50.894Z,100798.47
2023-05-06T17:51:06.807Z,100799.31
2023-05-06T17:54:11.381Z,100816.16
2023-05-06T17:57:17.165Z,100804.56
2023-05-06T18:00:21.153Z,100815.09
2023-05-06T18:03:25.205Z,100802.75
2023-05-06T18:06:32.730Z,100772.69
2023-05-06T18:09:38.684Z,100804.50
2023-05-06T18:12:48.871Z,100823.81
2023-05-06T18:15:53.487Z,100804.63
2023-05-06T18:18:58.365Z,100825.88
2023-05-06T18:22:02.723Z,100813.19
2023-05-06T18:25:08.168Z,100814.28
2023-05-06T18:28:12.901Z,100809.63
2023-05-06T18:31:41.581Z,100836.81
2023-05-06T18:34:48.908Z,100721.91
2023-05-06T18:37:57.636Z,100806.28
2023-05-06T18:41:04.137Z,100799.25
2023-05-06T18:44:08.978Z,100813.34
2023-05-06T18:47:13.333Z,100819.53
2023-05-06T18:50:20.941Z,100810.81
2023-05-06T18:53:25.527Z,100783.56
2023-05-06T18:56:31.142Z,100804.84
2023-05-06T18:59:37.482Z,100808.34
2023-05-06T19:02:42.139Z,100798.69
2023-05-06T19:05:49.093Z,100812.72
2023-05-06T19:08:54.471Z,100799.50
2023-05-06T19:11:58.732Z,100799.44
2023-05-06T19:15:03.039Z,100771.31
2023-05-06T19:18:08.223Z,100790.59
2023-05-06T19:21:13.646Z,100782.06
2023-05-06T19:24:18.084Z,100787.31
2023-05-06T19:27:22.597Z,100772.50
2023-05-06T19:30:32.598Z,100786.69
2023-05-06T19:33:45.971Z,100732.25
2023-05-06T19:36:55.639Z,100777.78
2023-05-06T19:40:10.050Z,100797.00
2023-05-06T19:43:16.856Z,100786.38
2023-05-06T19:46:30.453Z,100802.88
2023-05-06T19:49:40.589Z,100796.72
2023-05-06T19:52:59.016Z,100789.81
2023-05-06T19:56:50.412Z,100801.34
2023-05-06T20:00:12.522Z,100769.13
2023-05-06T20:03:19.678Z,100793.06
2023-05-06T20:06:38.036Z,100801.03
2023-05-06T20:09:57.670Z,100752.72
2023-05-06T20:13:08.024Z,100808.16
2023-05-06T20:16:17.288Z,100806.38
2023-05-06T20:19:53.351Z,100804.69
2023-05-06T20:22:59.757Z,100728.22
2023-05-06T20:26:06.688Z,100778.38
2023-05-06T20:29:11.129Z,100782.78
2023-05-06T20:32:28.684Z,100790.69
2023-05-06T20:35:41.702Z,100814.41
2023-05-06T20:43:01.911Z,100780.19
2023-05-06T20:46:07.589Z,100797.75
2023-05-06T20:49:12.622Z,100796.00
2023-05-06T20:52:25.320Z,100813.56
2023-05-06T20:55:43.971Z,100813.56
2023-05-06T20:58:50.522Z,100821.47
2023-05-06T21:01:59.587Z,100820.56
2023-05-06T21:05:05.443Z,100813.56
2023-05-06T21:08:14.310Z,100825.84
2023-05-06T21:11:19.956Z,100832.00
2023-05-06T21:14:31.058Z,100770.56
2023-05-06T21:17:40.065Z,100813.53
2023-05-06T21:21:01.593Z,100841.66
2023-05-06T21:24:12.683Z,100828.44
2023-05-06T21:27:19.117Z,100831.97
2023-05-06T21:30:25.521Z,100820.47
2023-05-06T21:33:30.021Z,100819.56
2023-05-06T21:36:39.464Z,100826.53
2023-05-06T21:40:05.158Z,100838.69
2023-05-06T21:43:26.593Z,100840.25
2023-05-06T21:46:35.810Z,100811.31
2023-05-06T21:50:08.399Z,100827.88
2023-05-06T21:53:14.073Z,100821.56
2023-05-06T21:56:23.815Z,100789.00
2023-05-06T21:59:29.599Z,100813.13
2023-05-06T22:02:46.495Z,100804.88
2023-05-06T22:05:53.267Z,100824.22
2023-05-06T22:09:09.729Z,100845.22
2023-05-06T22:12:19.829Z,100841.28
2023-05-06T22:19:35.290Z,100839.47
2023-05-06T22:22:45.349Z,100791.19
2023-05-06T22:25:49.929Z,100806.13
2023-05-06T22:28:56.391Z,100812.28
2023-05-06T22:32:06.906Z,100835.03
2023-05-06T22:35:14.857Z,100843.47
2023-05-06T22:38:19.721Z,100837.50
2023-05-06T22:41:24.387Z,100846.19
2023-05-06T22:45:15.650Z,100743.78
2023-05-06T22:50:01.201Z,100797.31
2023-05-06T22:53:38.589Z,100772.47
2023-05-06T22:56:46.464Z,100850.44
2023-05-06T22:59:50.905Z,100836.91
2023-05-06T23:02:55.413Z,100838.44
2023-05-06T23:05:59.325Z,100844.34
2023-05-06T23:09:06.470Z,100843.69
2023-05-06T23:12:10.930Z,100842.06
2023-05-06T23:15:33.330Z,100853.13
2023-05-06T23:18:47.055Z,100848.56
2023-05-06T23:21:51.406Z,100845.16
2023-05-06T23:24:56.723Z,100841.88
2023-05-06T23:28:01.098Z,100844.13
2023-05-06T23:31:05.622Z,100790.22
2023-05-06T23:34:10.036Z,100845.31
2023-05-06T23:37:20.087Z,100843.13
2023-05-06T23:40:24.536Z,100841.47
2023-05-06T23:43:29.035Z,100842.97
2023-05-06T23:46:33.652Z,100838.22
2023-05-06T23:49:38.126Z,100829.75
2023-05-06T23:52:42.614Z,100836.25
2023-05-06T23:55:50.179Z,100814.56
2023-05-06T23:58:57.456Z,100831.44
